Pagina principale
METAR-TAF:

METAR-TAF

Aeroporti :

Iğdır, Turchia

latitudine: 39-58-36N, longitudine: 43-52-36E, altezza: 945 m

Osservazione

Il bollettino è stato emesso 8 ore e 53 minuti fa, alle 16:50 UTC
Vento 14 kt da ovest
Temperature 26°C
Umidità 23%
Pressione 1012 hPa
Visibilità 10 km o più
Nubi sparse ad un'altezza di 4000 ft

METAR: LTCT 301650Z 26014KT 9999 SCT040 26/03 Q1012

Ora: 04:43 (01:43 UTC)

Previsione

Il bollettino è stato emesso 3 ore e 3 minuti fa, alle 22:40 UTC
Previsione valida dal 31 alle 00 UTC al 31 alle 09 UTC
Vento 9 kt da ovest
Visibilità 10 km o più
nessuna nube inferiore a 1500 m e nessun cumulonembo

TAF: LTCT 302240Z 3100/3109 26009KT CAVOK

Osservazioni e previsioni meteorologiche di più di 4000 aeroporti (messaggi METAR e TAF).

Le stazioni disponibili sono rappresentate dai dischi gialli e rossi sulla carta.

Puntare il mouse per vedere il nome della stazione.

Clicca sopra per visualizzare le osservazioni e previsioni meteorologiche.

Per cambiare la mappa : fare clic sui pulsanti verdi con una croce nera per ingrandire, il pulsante verde con un trattino per diminuire, o sulla freccia verde per le mappe adiacenti.


METAR-TAF: